sensor_id;sensor_type;location;lat;lon;timestamp;pressure;altitude;pressure_sealevel;temperature;humidity
72585;BME280;60618;40.084;32.908;2023-07-16T00:00:33;89784.31;;;18.04;54.26
72585;BME280;60618;40.084;32.908;2023-07-16T00:03:00;89773.84;;;18.00;53.75
72585;BME280;60618;40.084;32.908;2023-07-16T00:05:27;89777.47;;;18.03;53.73
72585;BME280;60618;40.084;32.908;2023-07-16T00:07:54;89770.94;;;17.98;53.95
72585;BME280;60618;40.084;32.908;2023-07-16T00:10:21;89772.66;;;17.96;54.31
72585;BME280;60618;40.084;32.908;2023-07-16T00:12:48;89767.56;;;17.92;54.09
72585;BME280;60618;40.084;32.908;2023-07-16T00:15:15;89774.72;;;17.90;54.30
72585;BME280;60618;40.084;32.908;2023-07-16T00:17:41;89761.31;;;17.84;54.15
72585;BME280;60618;40.084;32.908;2023-07-16T00:20:09;89755.25;;;17.78;54.48
72585;BME280;60618;40.084;32.908;2023-07-16T00:22:36;89769.41;;;17.84;54.55
72585;BME280;60618;40.084;32.908;2023-07-16T00:25:03;89770.69;;;17.77;54.89
72585;BME280;60618;40.084;32.908;2023-07-16T00:27:30;89770.59;;;17.64;55.11
72585;BME280;60618;40.084;32.908;2023-07-16T00:29:57;89769.78;;;17.50;55.47
72585;BME280;60618;40.084;32.908;2023-07-16T00:32:24;89770.59;;;17.45;55.35
72585;BME280;60618;40.084;32.908;2023-07-16T00:34:51;89768.63;;;17.46;55.13
72585;BME280;60618;40.084;32.908;2023-07-16T00:37:18;89761.84;;;17.39;55.44
72585;BME280;60618;40.084;32.908;2023-07-16T00:39:45;89762.03;;;17.41;54.94
72585;BME280;60618;40.084;32.908;2023-07-16T00:42:12;89758.63;;;17.41;54.91
72585;BME280;60618;40.084;32.908;2023-07-16T00:44:38;89771.31;;;17.46;54.88
72585;BME280;60618;40.084;32.908;2023-07-16T00:47:05;89771.31;;;17.46;54.46
72585;BME280;60618;40.084;32.908;2023-07-16T00:49:32;89776.53;;;17.38;55.04
72585;BME280;60618;40.084;32.908;2023-07-16T00:52:00;89774.91;;;17.29;55.29
72585;BME280;60618;40.084;32.908;2023-07-16T00:54:29;89770.56;;;17.26;55.57
72585;BME280;60618;40.084;32.908;2023-07-16T00:56:56;89756.13;;;17.24;55.67
72585;BME280;60618;40.084;32.908;2023-07-16T00:59:23;89758.16;;;17.18;55.79
72585;BME280;60618;40.084;32.908;2023-07-16T01:01:50;89762.31;;;17.19;55.82
72585;BME280;60618;40.084;32.908;2023-07-16T01:04:17;89768.75;;;17.10;55.94
72585;BME280;60618;40.084;32.908;2023-07-16T01:06:48;89759.44;;;17.11;55.57
72585;BME280;60618;40.084;32.908;2023-07-16T01:09:19;89756.09;;;17.05;55.50
72585;BME280;60618;40.084;32.908;2023-07-16T01:11:47;89751.50;;;17.00;55.71
72585;BME280;60618;40.084;32.908;2023-07-16T01:14:17;89760.31;;;17.00;55.42
72585;BME280;60618;40.084;32.908;2023-07-16T01:16:44;89749.72;;;17.08;55.18
72585;BME280;60618;40.084;32.908;2023-07-16T01:19:11;89752.75;;;16.99;55.39
72585;BME280;60618;40.084;32.908;2023-07-16T01:30:01;89753.13;;;16.84;56.21
72585;BME280;60618;40.084;32.908;2023-07-16T01:32:30;89760.69;;;16.86;56.49
72585;BME280;60618;40.084;32.908;2023-07-16T01:34:58;89762.59;;;16.91;56.32
72585;BME280;60618;40.084;32.908;2023-07-16T01:37:26;89756.53;;;16.85;56.09
72585;BME280;60618;40.084;32.908;2023-07-16T01:39:53;89761.38;;;16.92;55.69
72585;BME280;60618;40.084;32.908;2023-07-16T01:42:20;89758.00;;;16.86;55.49
72585;BME280;60618;40.084;32.908;2023-07-16T01:44:47;89751.72;;;16.78;55.46
72585;BME280;60618;40.084;32.908;2023-07-16T01:50:02;89759.84;;;16.66;54.76
72585;BME280;60618;40.084;32.908;2023-07-16T01:52:29;89768.63;;;16.72;54.46
72585;BME280;60618;40.084;32.908;2023-07-16T01:54:56;89760.06;;;16.74;54.92
72585;BME280;60618;40.084;32.908;2023-07-16T01:57:23;89767.41;;;16.73;55.07
72585;BME280;60618;40.084;32.908;2023-07-16T01:59:50;89762.13;;;16.87;54.93
72585;BME280;60618;40.084;32.908;2023-07-16T02:02:17;89751.50;;;16.76;55.28
72585;BME280;60618;40.084;32.908;2023-07-16T02:04:44;89755.19;;;16.72;55.62
72585;BME280;60618;40.084;32.908;2023-07-16T02:07:11;89768.69;;;16.61;56.19
72585;BME280;60618;40.084;32.908;2023-07-16T02:09:38;89765.28;;;16.61;56.33
72585;BME280;60618;40.084;32.908;2023-07-16T02:12:05;89756.34;;;16.47;56.60
72585;BME280;60618;40.084;32.908;2023-07-16T02:14:32;89775.00;;;16.39;56.74
72585;BME280;60618;40.084;32.908;2023-07-16T02:16:59;89751.50;;;16.45;56.54
72585;BME280;60618;40.084;32.908;2023-07-16T02:19:26;89778.38;;;16.45;56.22
72585;BME280;60618;40.084;32.908;2023-07-16T02:21:53;89783.97;;;16.48;55.84
72585;BME280;60618;40.084;32.908;2023-07-16T02:24:20;89767.13;;;16.47;56.42
72585;BME280;60618;40.084;32.908;2023-07-16T02:26:47;89779.31;;;16.48;55.82
72585;BME280;60618;40.084;32.908;2023-07-16T02:29:14;89766.41;;;16.41;56.31
72585;BME280;60618;40.084;32.908;2023-07-16T02:31:41;89777.66;;;16.45;56.84
72585;BME280;60618;40.084;32.908;2023-07-16T02:34:08;89772.50;;;16.47;55.96
72585;BME280;60618;40.084;32.908;2023-07-16T02:36:35;89759.88;;;16.36;56.62
72585;BME280;60618;40.084;32.908;2023-07-16T02:39:02;89771.81;;;16.35;56.07
72585;BME280;60618;40.084;32.908;2023-07-16T02:41:29;89777.72;;;16.34;56.36
72585;BME280;60618;40.084;32.908;2023-07-16T02:44:04;89778.19;;;16.38;56.61
72585;BME280;60618;40.084;32.908;2023-07-16T02:46:32;89777.72;;;16.34;56.52
72585;BME280;60618;40.084;32.908;2023-07-16T02:48:59;89782.09;;;16.37;56.85
72585;BME280;60618;40.084;32.908;2023-07-16T02:51:25;89773.34;;;16.31;57.06
72585;BME280;60618;40.084;32.908;2023-07-16T02:53:52;89765.97;;;16.37;57.42
72585;BME280;60618;40.084;32.908;2023-07-16T02:56:19;89770.13;;;16.38;57.74
72585;BME280;60618;40.084;32.908;2023-07-16T02:58:46;89770.06;;;16.43;57.24
72585;BME280;60618;40.084;32.908;2023-07-16T03:01:13;89782.28;;;16.44;57.14
72585;BME280;60618;40.084;32.908;2023-07-16T03:03:40;89779.13;;;16.40;57.07
72585;BME280;60618;40.084;32.908;2023-07-16T03:06:07;89785.97;;;16.41;57.08
72585;BME280;60618;40.084;32.908;2023-07-16T03:08:34;89786.47;;;16.40;57.21
72585;BME280;60618;40.084;32.908;2023-07-16T03:11:01;89777.41;;;16.43;56.84
72585;BME280;60618;40.084;32.908;2023-07-16T03:13:28;89788.94;;;16.38;57.10
72585;BME280;60618;40.084;32.908;2023-07-16T03:15:55;89783.28;;;16.41;57.02
72585;BME280;60618;40.084;32.908;2023-07-16T03:18:22;89791.03;;;16.51;56.85
72585;BME280;60618;40.084;32.908;2023-07-16T03:20:49;89775.06;;;16.58;56.42
72585;BME280;60618;40.084;32.908;2023-07-16T03:23:16;89780.13;;;16.67;55.97
72585;BME280;60618;40.084;32.908;2023-07-16T03:25:44;89780.63;;;16.71;55.52
72585;BME280;60618;40.084;32.908;2023-07-16T03:28:11;89773.72;;;16.76;55.61
72585;BME280;60618;40.084;32.908;2023-07-16T03:30:38;89783.75;;;16.76;55.66
72585;BME280;60618;40.084;32.908;2023-07-16T03:33:05;89797.91;;;16.82;56.02
72585;BME280;60618;40.084;32.908;2023-07-16T03:35:32;89789.84;;;16.82;56.29
72585;BME280;60618;40.084;32.908;2023-07-16T03:37:59;89784.66;;;16.84;56.97
72585;BME280;60618;40.084;32.908;2023-07-16T03:40:26;89793.13;;;16.93;57.19
72585;BME280;60618;40.084;32.908;2023-07-16T03:42:53;89798.47;;;16.99;57.50
72585;BME280;60618;40.084;32.908;2023-07-16T03:45:20;89793.31;;;17.01;58.15
72585;BME280;60618;40.084;32.908;2023-07-16T03:47:47;89799.09;;;17.11;58.23
72585;BME280;60618;40.084;32.908;2023-07-16T03:50:14;89810.03;;;17.18;58.21
72585;BME280;60618;40.084;32.908;2023-07-16T03:52:43;89816.75;;;17.30;58.11
72585;BME280;60618;40.084;32.908;2023-07-16T03:55:10;89824.72;;;17.42;58.79
72585;BME280;60618;40.084;32.908;2023-07-16T03:57:38;89815.28;;;17.54;58.95
72585;BME280;60618;40.084;32.908;2023-07-16T04:00:05;89817.75;;;17.52;59.89
72585;BME280;60618;40.084;32.908;2023-07-16T04:02:32;89816.59;;;17.66;59.58
72585;BME280;60618;40.084;32.908;2023-07-16T04:04:59;89827.88;;;17.89;59.69
72585;BME280;60618;40.084;32.908;2023-07-16T04:07:26;89836.47;;;17.87;59.47
72585;BME280;60618;40.084;32.908;2023-07-16T04:09:53;89827.94;;;17.83;59.70
72585;BME280;60618;40.084;32.908;2023-07-16T04:12:20;89817.19;;;18.02;59.89
72585;BME280;60618;40.084;32.908;2023-07-16T04:14:47;89827.59;;;18.11;60.58
72585;BME280;60618;40.084;32.908;2023-07-16T04:17:14;89818.63;;;18.22;61.05
72585;BME280;60618;40.084;32.908;2023-07-16T04:19:41;89834.16;;;18.16;62.25
72585;BME280;60618;40.084;32.908;2023-07-16T04:22:08;89830.66;;;18.21;62.14
72585;BME280;60618;40.084;32.908;2023-07-16T04:24:35;89829.91;;;18.21;62.25
72585;BME280;60618;40.084;32.908;2023-07-16T04:27:02;89828.91;;;18.42;61.55
72585;BME280;60618;40.084;32.908;2023-07-16T04:29:29;89838.50;;;18.57;61.54
72585;BME280;60618;40.084;32.908;2023-07-16T04:31:56;89833.09;;;18.57;60.90
72585;BME280;60618;40.084;32.908;2023-07-16T04:34:23;89831.63;;;18.56;60.84
72585;BME280;60618;40.084;32.908;2023-07-16T04:36:50;89838.59;;;18.70;60.31
72585;BME280;60618;40.084;32.908;2023-07-16T04:39:17;89842.28;;;18.67;60.38
72585;BME280;60618;40.084;32.908;2023-07-16T04:41:43;89840.59;;;18.64;60.55
72585;BME280;60618;40.084;32.908;2023-07-16T04:44:10;89842.09;;;18.65;60.33
72585;BME280;60618;40.084;32.908;2023-07-16T04:46:37;89845.78;;;18.62;60.63
72585;BME280;60618;40.084;32.908;2023-07-16T04:49:04;89848.03;;;18.77;60.17
72585;BME280;60618;40.084;32.908;2023-07-16T04:51:31;89849.00;;;18.79;60.18
72585;BME280;60618;40.084;32.908;2023-07-16T04:53:58;89849.53;;;18.91;60.60
72585;BME280;60618;40.084;32.908;2023-07-16T04:56:25;89848.59;;;18.88;60.91
72585;BME280;60618;40.084;32.908;2023-07-16T04:58:52;89845.13;;;19.07;60.74
72585;BME280;60618;40.084;32.908;2023-07-16T05:01:19;89846.13;;;19.04;60.47
72585;BME280;60618;40.084;32.908;2023-07-16T05:03:46;89846.69;;;19.15;60.01
72585;BME280;60618;40.084;32.908;2023-07-16T05:06:13;89856.78;;;19.28;59.47
72585;BME280;60618;40.084;32.908;2023-07-16T05:08:40;89854.59;;;19.26;59.13
72585;BME280;60618;40.084;32.908;2023-07-16T05:11:07;89852.94;;;19.23;59.64
72585;BME280;60618;40.084;32.908;2023-07-16T05:13:34;89850.56;;;19.33;59.13
72585;BME280;60618;40.084;32.908;2023-07-16T05:16:01;89851.19;;;19.39;59.19
72585;BME280;60618;40.084;32.908;2023-07-16T05:18:28;89858.28;;;19.42;59.06
72585;BME280;60618;40.084;32.908;2023-07-16T05:20:55;89858.88;;;19.48;58.66
72585;BME280;60618;40.084;32.908;2023-07-16T05:23:22;89857.06;;;19.56;58.64
72585;BME280;60618;40.084;32.908;2023-07-16T05:25:51;89851.44;;;19.81;58.08
72585;BME280;60618;40.084;32.908;2023-07-16T05:28:18;89853.50;;;20.01;56.84
72585;BME280;60618;40.084;32.908;2023-07-16T05:30:45;89852.59;;;19.99;57.13
72585;BME280;60618;40.084;32.908;2023-07-16T05:33:12;89854.53;;;20.11;56.91
72585;BME280;60618;40.084;32.908;2023-07-16T05:35:40;89850.41;;;19.97;56.80
72585;BME280;60618;40.084;32.908;2023-07-16T05:38:07;89858.28;;;20.08;57.22
72585;BME280;60618;40.084;32.908;2023-07-16T05:40:34;89853.91;;;20.32;56.18
72585;BME280;60618;40.084;32.908;2023-07-16T05:43:03;89851.38;;;20.34;55.62
72585;BME280;60618;40.084;32.908;2023-07-16T05:45:30;89852.81;;;20.48;55.84
72585;BME280;60618;40.084;32.908;2023-07-16T05:47:57;89836.91;;;20.45;54.85
72585;BME280;60618;40.084;32.908;2023-07-16T05:50:24;89844.31;;;20.44;54.96
72585;BME280;60618;40.084;32.908;2023-07-16T05:52:51;89851.16;;;20.58;55.41
72585;BME280;60618;40.084;32.908;2023-07-16T05:55:18;89847.31;;;20.75;54.07
72585;BME280;60618;40.084;32.908;2023-07-16T05:57:45;89857.66;;;20.97;53.79
72585;BME280;60618;40.084;32.908;2023-07-16T06:00:12;89850.84;;;20.83;53.74
72585;BME280;60618;40.084;32.908;2023-07-16T06:02:39;89841.56;;;21.12;53.82
72585;BME280;60618;40.084;32.908;2023-07-16T06:05:07;89846.88;;;21.46;52.54
72585;BME280;60618;40.084;32.908;2023-07-16T06:07:33;89842.59;;;21.51;52.12
72585;BME280;60618;40.084;32.908;2023-07-16T06:10:00;89845.91;;;21.65;51.38
72585;BME280;60618;40.084;32.908;2023-07-16T06:12:27;89845.53;;;21.61;51.73
72585;BME280;60618;40.084;32.908;2023-07-16T06:14:54;89839.78;;;21.64;52.16
72585;BME280;60618;40.084;32.908;2023-07-16T06:17:21;89849.63;;;21.75;52.25
72585;BME280;60618;40.084;32.908;2023-07-16T06:19:48;89842.00;;;21.45;52.65
72585;BME280;60618;40.084;32.908;2023-07-16T06:22:15;89840.91;;;21.69;51.88
72585;BME280;60618;40.084;32.908;2023-07-16T06:24:42;89849.47;;;21.80;51.23
72585;BME280;60618;40.084;32.908;2023-07-16T06:27:09;89841.38;;;21.88;51.66
72585;BME280;60618;40.084;32.908;2023-07-16T06:29:36;89845.91;;;21.57;52.37
72585;BME280;60618;40.084;32.908;2023-07-16T06:32:03;89854.09;;;21.72;51.99
72585;BME280;60618;40.084;32.908;2023-07-16T06:34:30;89851.00;;;21.97;52.04
72585;BME280;60618;40.084;32.908;2023-07-16T06:37:00;89855.47;;;21.58;51.73
72585;BME280;60618;40.084;32.908;2023-07-16T06:39:30;89849.03;;;21.69;52.69
72585;BME280;60618;40.084;32.908;2023-07-16T06:41:57;89852.63;;;22.00;51.33
72585;BME280;60618;40.084;32.908;2023-07-16T06:44:24;89853.34;;;22.21;50.96
72585;BME280;60618;40.084;32.908;2023-07-16T06:46:51;89854.09;;;22.01;51.19
72585;BME280;60618;40.084;32.908;2023-07-16T06:49:19;89852.03;;;22.15;50.45
72585;BME280;60618;40.084;32.908;2023-07-16T06:51:46;89846.31;;;22.33;50.21
72585;BME280;60618;40.084;32.908;2023-07-16T06:54:13;89849.16;;;22.72;49.66
72585;BME280;60618;40.084;32.908;2023-07-16T06:56:40;89852.19;;;22.53;49.31
72585;BME280;60618;40.084;32.908;2023-07-16T06:59:07;89852.94;;;22.61;49.09
72585;BME280;60618;40.084;32.908;2023-07-16T07:01:34;89853.13;;;22.71;48.92
72585;BME280;60618;40.084;32.908;2023-07-16T07:04:01;89844.72;;;23.05;48.51
72585;BME280;60618;40.084;32.908;2023-07-16T07:06:28;89837.97;;;22.83;47.97
72585;BME280;60618;40.084;32.908;2023-07-16T07:08:55;89845.72;;;22.71;48.26
72585;BME280;60618;40.084;32.908;2023-07-16T07:11:22;89840.25;;;22.56;49.12
72585;BME280;60618;40.084;32.908;2023-07-16T07:13:49;89841.81;;;22.87;48.35
72585;BME280;60618;40.084;32.908;2023-07-16T07:16:16;89836.31;;;22.72;48.03
72585;BME280;60618;40.084;32.908;2023-07-16T07:18:43;89838.13;;;22.77;47.37
72585;BME280;60618;40.084;32.908;2023-07-16T07:21:13;89837.81;;;22.88;46.55
72585;BME280;60618;40.084;32.908;2023-07-16T08:04:34;89819.63;;;24.36;40.54
72585;BME280;60618;40.084;32.908;2023-07-16T08:07:02;89823.19;;;23.83;40.75
72585;BME280;60618;40.084;32.908;2023-07-16T08:09:29;89822.78;;;23.94;41.13
72585;BME280;60618;40.084;32.908;2023-07-16T08:11:56;89834.00;;;23.98;40.30
72585;BME280;60618;40.084;32.908;2023-07-16T08:14:23;89834.56;;;23.97;40.36
72585;BME280;60618;40.084;32.908;2023-07-16T08:16:50;89804.38;;;24.25;40.17
72585;BME280;60618;40.084;32.908;2023-07-16T08:19:17;89815.00;;;24.54;39.27
72585;BME280;60618;40.084;32.908;2023-07-16T08:21:44;89802.13;;;24.54;39.91
72585;BME280;60618;40.084;32.908;2023-07-16T08:24:11;89808.41;;;24.65;39.17
72585;BME280;60618;40.084;32.908;2023-07-16T08:26:38;89805.09;;;24.33;38.96
72585;BME280;60618;40.084;32.908;2023-07-16T08:29:05;89798.78;;;24.08;39.58
72585;BME280;60618;40.084;32.908;2023-07-16T08:31:32;89818.84;;;24.43;39.97
72585;BME280;60618;40.084;32.908;2023-07-16T08:33:59;89803.56;;;24.55;39.77
72585;BME280;60618;40.084;32.908;2023-07-16T08:36:30;89802.69;;;24.45;38.89
72585;BME280;60618;40.084;32.908;2023-07-16T08:38:57;89815.16;;;24.56;36.75
72585;BME280;60618;40.084;32.908;2023-07-16T08:41:23;89800.44;;;24.91;38.09
72585;BME280;60618;40.084;32.908;2023-07-16T08:43:50;89808.75;;;25.01;38.35
72585;BME280;60618;40.084;32.908;2023-07-16T08:46:17;89817.72;;;24.86;38.53
72585;BME280;60618;40.084;32.908;2023-07-16T08:48:45;89823.59;;;24.75;38.92
72585;BME280;60618;40.084;32.908;2023-07-16T08:51:14;89809.50;;;24.94;38.96
72585;BME280;60618;40.084;32.908;2023-07-16T08:53:42;89815.72;;;24.87;37.53
72585;BME280;60618;40.084;32.908;2023-07-16T08:56:09;89812.00;;;25.07;38.12
72585;BME280;60618;40.084;32.908;2023-07-16T08:58:37;89806.75;;;24.69;38.02
72585;BME280;60618;40.084;32.908;2023-07-16T09:01:05;89817.16;;;24.88;37.48
72585;BME280;60618;40.084;32.908;2023-07-16T09:03:32;89814.06;;;24.91;37.19
72585;BME280;60618;40.084;32.908;2023-07-16T09:06:02;89807.66;;;24.97;37.85
72585;BME280;60618;40.084;32.908;2023-07-16T09:08:29;89807.88;;;25.24;36.67
72585;BME280;60618;40.084;32.908;2023-07-16T09:10:57;89810.00;;;25.33;37.59
72585;BME280;60618;40.084;32.908;2023-07-16T09:13:24;89794.69;;;25.62;36.17
72585;BME280;60618;40.084;32.908;2023-07-16T09:15:52;89792.47;;;25.61;36.37
72585;BME280;60618;40.084;32.908;2023-07-16T09:18:23;89799.59;;;25.39;36.42
72585;BME280;60618;40.084;32.908;2023-07-16T09:20:58;89787.25;;;25.38;35.78
72585;BME280;60618;40.084;32.908;2023-07-16T09:23:26;89801.19;;;25.42;34.98
72585;BME280;60618;40.084;32.908;2023-07-16T09:25:54;89802.00;;;25.35;35.20
72585;BME280;60618;40.084;32.908;2023-07-16T09:28:22;89802.31;;;25.39;34.66
72585;BME280;60618;40.084;32.908;2023-07-16T10:08:55;89773.28;;;26.45;31.64
72585;BME280;60618;40.084;32.908;2023-07-16T10:11:22;89786.75;;;26.61;30.83
72585;BME280;60618;40.084;32.908;2023-07-16T10:13:49;89773.44;;;26.30;30.84
72585;BME280;60618;40.084;32.908;2023-07-16T10:16:20;89770.88;;;26.76;30.39
72585;BME280;60618;40.084;32.908;2023-07-16T10:18:50;89761.13;;;26.83;30.17
72585;BME280;60618;40.084;32.908;2023-07-16T10:21:22;89759.72;;;26.92;31.13
72585;BME280;60618;40.084;32.908;2023-07-16T10:23:57;89765.06;;;26.90;30.64
72585;BME280;60618;40.084;32.908;2023-07-16T10:26:27;89756.19;;;26.72;31.96
72585;BME280;60618;40.084;32.908;2023-07-16T10:28:55;89762.41;;;26.55;32.17
72585;BME280;60618;40.084;32.908;2023-07-16T10:31:24;89761.22;;;26.75;32.10
72585;BME280;60618;40.084;32.908;2023-07-16T10:34:04;89759.16;;;26.66;32.22
72585;BME280;60618;40.084;32.908;2023-07-16T10:36:38;89756.56;;;26.95;32.56
72585;BME280;60618;40.084;32.908;2023-07-16T10:39:05;89752.88;;;27.00;31.53
72585;BME280;60618;40.084;32.908;2023-07-16T10:41:33;89753.03;;;26.75;31.49
72585;BME280;60618;40.084;32.908;2023-07-16T10:44:00;89748.31;;;27.12;31.53
72585;BME280;60618;40.084;32.908;2023-07-16T10:46:27;89743.28;;;27.09;30.59
72585;BME280;60618;40.084;32.908;2023-07-16T10:48:54;89744.72;;;27.10;31.47
72585;BME280;60618;40.084;32.908;2023-07-16T10:51:27;89740.16;;;27.22;31.00
72585;BME280;60618;40.084;32.908;2023-07-16T10:53:55;89737.84;;;27.75;31.20
72585;BME280;60618;40.084;32.908;2023-07-16T10:56:23;89731.53;;;27.91;30.31
72585;BME280;60618;40.084;32.908;2023-07-16T10:58:50;89732.44;;;27.48;31.17
72585;BME280;60618;40.084;32.908;2023-07-16T11:01:17;89734.97;;;27.73;31.64
72585;BME280;60618;40.084;32.908;2023-07-16T11:03:45;89725.28;;;27.62;31.81
72585;BME280;60618;40.084;32.908;2023-07-16T11:06:12;89723.59;;;27.76;31.35
72585;BME280;60618;40.084;32.908;2023-07-16T11:08:39;89727.94;;;27.79;31.65
72585;BME280;60618;40.084;32.908;2023-07-16T11:11:06;89718.28;;;27.22;31.56
72585;BME280;60618;40.084;32.908;2023-07-16T11:13:33;89713.00;;;27.43;31.80
72585;BME280;60618;40.084;32.908;2023-07-16T11:16:07;89711.63;;;27.71;30.65
72585;BME280;60618;40.084;32.908;2023-07-16T11:18:34;89708.75;;;27.69;30.86
72585;BME280;60618;40.084;32.908;2023-07-16T11:21:01;89707.25;;;27.59;31.48
72585;BME280;60618;40.084;32.908;2023-07-16T11:23:33;89701.41;;;27.82;31.75
72585;BME280;60618;40.084;32.908;2023-07-16T11:26:02;89708.31;;;28.12;31.03
72585;BME280;60618;40.084;32.908;2023-07-16T11:28:41;89701.41;;;27.91;30.51
72585;BME280;60618;40.084;32.908;2023-07-16T11:31:16;89706.44;;;27.66;30.45
72585;BME280;60618;40.084;32.908;2023-07-16T11:33:46;89704.72;;;27.70;30.45
72585;BME280;60618;40.084;32.908;2023-07-16T11:36:13;89695.66;;;27.87;30.67
72585;BME280;60618;40.084;32.908;2023-07-16T11:38:41;89685.63;;;27.24;31.63
72585;BME280;60618;40.084;32.908;2023-07-16T11:41:09;89698.03;;;27.44;31.96
72585;BME280;60618;40.084;32.908;2023-07-16T11:43:36;89685.44;;;27.68;31.86
72585;BME280;60618;40.084;32.908;2023-07-16T11:46:13;89689.88;;;27.83;30.72
72585;BME280;60618;40.084;32.908;2023-07-16T11:48:41;89688.84;;;28.17;29.90
72585;BME280;60618;40.084;32.908;2023-07-16T11:51:08;89694.50;;;27.90;30.33
72585;BME280;60618;40.084;32.908;2023-07-16T11:53:35;89695.66;;;27.78;30.71
72585;BME280;60618;40.084;32.908;2023-07-16T11:56:06;89684.94;;;27.62;30.67
72585;BME280;60618;40.084;32.908;2023-07-16T11:58:33;89691.16;;;27.63;31.02
72585;BME280;60618;40.084;32.908;2023-07-16T12:01:00;89678.06;;;28.10;31.24
72585;BME280;60618;40.084;32.908;2023-07-16T12:03:27;89683.97;;;28.16;29.90
72585;BME280;60618;40.084;32.908;2023-07-16T12:05:54;89682.09;;;28.18;29.75
72585;BME280;60618;40.084;32.908;2023-07-16T12:08:21;89679.88;;;28.55;30.00
72585;BME280;60618;40.084;32.908;2023-07-16T12:10:48;89674.00;;;28.49;30.04
72585;BME280;60618;40.084;32.908;2023-07-16T12:13:15;89679.19;;;28.26;29.70
72585;BME280;60618;40.084;32.908;2023-07-16T12:15:42;89677.47;;;28.21;29.77
72585;BME280;60618;40.084;32.908;2023-07-16T12:18:09;89683.09;;;28.42;28.65
72585;BME280;60618;40.084;32.908;2023-07-16T12:20:35;89671.97;;;28.50;28.18
72585;BME280;60618;40.084;32.908;2023-07-16T12:23:03;89678.31;;;28.52;29.29
72585;BME280;60618;40.084;32.908;2023-07-16T12:25:30;89680.84;;;28.70;28.92
72585;BME280;60618;40.084;32.908;2023-07-16T12:27:57;89670.00;;;28.72;28.46
72585;BME280;60618;40.084;32.908;2023-07-16T12:30:24;89671.09;;;28.47;28.91
72585;BME280;60618;40.084;32.908;2023-07-16T12:32:51;89685.84;;;28.04;28.82
72585;BME280;60618;40.084;32.908;2023-07-16T12:35:18;89678.06;;;28.10;29.05
72585;BME280;60618;40.084;32.908;2023-07-16T12:37:45;89674.72;;;28.40;27.70
72585;BME280;60618;40.084;32.908;2023-07-16T12:40:12;89677.41;;;28.60;28.33
72585;BME280;60618;40.084;32.908;2023-07-16T12:42:39;89670.25;;;28.86;26.75
72585;BME280;60618;40.084;32.908;2023-07-16T12:45:06;89670.16;;;29.15;27.15
72585;BME280;60618;40.084;32.908;2023-07-16T12:47:33;89670.69;;;28.82;27.05
72585;BME280;60618;40.084;32.908;2023-07-16T12:50:01;89669.94;;;28.50;27.95
72585;BME280;60618;40.084;32.908;2023-07-16T12:52:27;89671.28;;;28.30;27.78
72585;BME280;60618;40.084;32.908;2023-07-16T12:54:54;89672.47;;;28.77;27.98
72585;BME280;60618;40.084;32.908;2023-07-16T12:57:24;89671.16;;;28.78;27.75
72585;BME280;60618;40.084;32.908;2023-07-16T12:59:51;89661.50;;;27.98;28.09
72585;BME280;60618;40.084;32.908;2023-07-16T13:02:18;89663.47;;;28.36;28.12
72585;BME280;60618;40.084;32.908;2023-07-16T13:04:45;89658.50;;;29.04;27.79
72585;BME280;60618;40.084;32.908;2023-07-16T13:07:11;89668.56;;;29.43;26.56
72585;BME280;60618;40.084;32.908;2023-07-16T13:09:38;89670.56;;;29.21;27.87
72585;BME280;60618;40.084;32.908;2023-07-16T13:12:06;89662.78;;;29.38;26.50
72585;BME280;60618;40.084;32.908;2023-07-16T13:14:32;89662.78;;;29.70;26.95
72585;BME280;60618;40.084;32.908;2023-07-16T13:16:59;89648.28;;;29.57;26.22
72585;BME280;60618;40.084;32.908;2023-07-16T13:19:26;89649.81;;;29.08;26.58
72585;BME280;60618;40.084;32.908;2023-07-16T13:21:53;89659.72;;;29.44;25.22
72585;BME280;60618;40.084;32.908;2023-07-16T13:24:20;89660.09;;;29.07;24.93
72585;BME280;60618;40.084;32.908;2023-07-16T13:26:47;89657.09;;;29.03;26.46
72585;BME280;60618;40.084;32.908;2023-07-16T13:29:14;89650.13;;;29.02;26.18
72585;BME280;60618;40.084;32.908;2023-07-16T13:31:41;89656.97;;;29.23;27.29
72585;BME280;60618;40.084;32.908;2023-07-16T13:34:08;89659.31;;;29.17;26.00
72585;BME280;60618;40.084;32.908;2023-07-16T13:36:35;89651.78;;;28.86;26.86
72585;BME280;60618;40.084;32.908;2023-07-16T13:39:02;89648.66;;;29.11;26.30
72585;BME280;60618;40.084;32.908;2023-07-16T13:41:34;89648.63;;;29.21;25.91
72585;BME280;60618;40.084;32.908;2023-07-16T13:44:01;89651.91;;;28.88;27.14
72585;BME280;60618;40.084;32.908;2023-07-16T13:46:28;89651.34;;;28.49;27.55
72585;BME280;60618;40.084;32.908;2023-07-16T13:48:55;89645.09;;;28.68;28.11
72585;BME280;60618;40.084;32.908;2023-07-16T13:51:25;89638.19;;;28.98;27.18
72585;BME280;60618;40.084;32.908;2023-07-16T13:53:52;89636.56;;;29.04;26.60
72585;BME280;60618;40.084;32.908;2023-07-16T13:56:19;89642.84;;;29.17;25.52
72585;BME280;60618;40.084;32.908;2023-07-16T13:58:46;89640.50;;;29.23;25.98
72585;BME280;60618;40.084;32.908;2023-07-16T14:01:13;89643.56;;;29.17;26.40
72585;BME280;60618;40.084;32.908;2023-07-16T14:03:40;89638.06;;;28.86;27.78
72585;BME280;60618;40.084;32.908;2023-07-16T14:06:07;89635.19;;;28.84;27.87
72585;BME280;60618;40.084;32.908;2023-07-16T14:08:34;89645.28;;;28.91;27.31
72585;BME280;60618;40.084;32.908;2023-07-16T14:11:02;89636.53;;;28.23;27.94
72585;BME280;60618;40.084;32.908;2023-07-16T14:13:29;89639.41;;;28.25;27.98
72585;BME280;60618;40.084;32.908;2023-07-16T14:15:56;89630.78;;;27.99;27.71
72585;BME280;60618;40.084;32.908;2023-07-16T14:18:22;89627.00;;;28.24;28.45
72585;BME280;60618;40.084;32.908;2023-07-16T14:20:49;89627.00;;;28.24;27.89